createdAt,value
2018-12-14T00:01:50.458Z,4.60
2018-12-14T00:04:17.948Z,5.85
2018-12-14T00:06:45.430Z,5.05
2018-12-14T00:09:12.846Z,6.03
2018-12-14T00:11:45.568Z,4.60
2018-12-14T00:14:07.772Z,5.57
2018-12-14T00:16:36.208Z,5.05
2018-12-14T00:19:03.627Z,4.60
2018-12-14T00:21:31.869Z,4.68
2018-12-14T00:23:59.288Z,4.35
2018-12-14T00:26:26.709Z,5.87
2018-12-14T00:28:54.515Z,5.15
2018-12-14T00:31:21.941Z,6.20
2018-12-14T00:33:49.385Z,4.82
2018-12-14T00:36:17.791Z,5.32
2018-12-14T00:38:45.205Z,5.40
2018-12-14T00:41:12.637Z,6.10
2018-12-14T00:43:40.051Z,6.70
2018-12-14T00:46:07.479Z,5.43
2018-12-14T00:48:34.883Z,5.15
2018-12-14T00:51:02.408Z,6.80
2018-12-14T00:53:29.917Z,5.80
2018-12-14T00:55:57.403Z,5.43
2018-12-14T00:58:24.802Z,4.70
2018-12-14T01:00:52.251Z,5.65
2018-12-14T01:03:19.691Z,6.00
2018-12-14T01:05:47.107Z,5.18
2018-12-14T01:08:14.512Z,6.05
2018-12-14T01:10:41.974Z,5.37
2018-12-14T01:13:09.396Z,5.85
2018-12-14T01:15:36.795Z,6.03
2018-12-14T01:18:05.910Z,6.05
2018-12-14T01:20:33.385Z,4.82
2018-12-14T01:23:00.784Z,5.50
2018-12-14T01:25:28.187Z,5.53
2018-12-14T01:27:55.623Z,5.68
2018-12-14T01:30:23.311Z,5.87
2018-12-14T01:32:50.727Z,7.10
2018-12-14T01:35:18.152Z,5.70
2018-12-14T01:37:45.550Z,6.70
2018-12-14T01:40:13.605Z,6.07
2018-12-14T01:42:41.033Z,5.35
2018-12-14T01:45:08.419Z,6.43
2018-12-14T01:47:35.840Z,6.18
2018-12-14T01:50:03.268Z,6.30
2018-12-14T01:52:30.689Z,7.40
2018-12-14T01:54:58.144Z,5.85
2018-12-14T01:57:25.540Z,5.03
2018-12-14T01:59:52.946Z,6.47
2018-12-14T02:02:20.394Z,7.05
2018-12-14T02:04:47.911Z,5.87
2018-12-14T02:07:15.376Z,5.40
2018-12-14T02:09:42.829Z,4.43
2018-12-14T02:12:11.377Z,5.30
2018-12-14T02:14:37.796Z,6.00
2018-12-14T02:17:05.232Z,5.15
2018-12-14T02:19:32.726Z,5.68
2018-12-14T02:22:00.441Z,5.80
2018-12-14T02:24:28.854Z,6.12
2018-12-14T02:26:56.401Z,5.78
2018-12-14T02:29:23.800Z,5.60
2018-12-14T02:31:51.227Z,7.18
2018-12-14T02:34:18.669Z,5.78
2018-12-14T02:36:46.207Z,7.20
2018-12-14T02:39:13.709Z,7.03
2018-12-14T02:41:41.058Z,6.50
2018-12-14T02:44:08.638Z,5.35
2018-12-14T02:46:36.051Z,5.00
2018-12-14T02:49:03.558Z,6.40
2018-12-14T02:51:31.447Z,7.00
2018-12-14T02:53:58.834Z,6.40
2018-12-14T02:56:26.595Z,5.35
2018-12-14T02:58:54.011Z,6.75
2018-12-14T03:01:21.425Z,5.47
2018-12-14T03:03:48.859Z,7.37
2018-12-14T03:06:16.352Z,6.62
2018-12-14T03:08:43.757Z,6.10
2018-12-14T03:11:11.366Z,7.72
2018-12-14T03:13:38.831Z,7.68
2018-12-14T03:16:06.335Z,6.05
2018-12-14T03:18:33.850Z,5.97
2018-12-14T03:21:01.581Z,5.37
2018-12-14T03:23:29.162Z,8.32
2018-12-14T03:25:56.580Z,8.07
2018-12-14T03:28:24.030Z,6.75
2018-12-14T03:30:51.462Z,6.82
2018-12-14T03:33:19.020Z,6.80
2018-12-14T03:35:46.609Z,6.90
2018-12-14T03:38:14.001Z,7.97
2018-12-14T03:40:41.439Z,6.75
2018-12-14T03:43:08.872Z,7.35
2018-12-14T03:45:36.269Z,7.30
2018-12-14T03:48:03.717Z,7.97
2018-12-14T03:50:31.680Z,8.10
2018-12-14T03:52:59.095Z,6.78
2018-12-14T03:55:26.620Z,7.50
2018-12-14T03:57:54.032Z,7.20
2018-12-14T04:00:21.447Z,7.40
2018-12-14T04:02:48.878Z,8.30
2018-12-14T04:05:16.305Z,8.68
2018-12-14T04:07:43.718Z,7.65
2018-12-14T04:10:11.127Z,8.25
2018-12-14T04:12:41.803Z,9.93
2018-12-14T04:15:06.281Z,8.10
2018-12-14T04:17:33.715Z,8.48
2018-12-14T04:20:01.151Z,7.68
2018-12-14T04:22:28.590Z,6.28
2018-12-14T04:24:56.036Z,7.20
2018-12-14T04:27:23.447Z,8.35
2018-12-14T04:29:50.854Z,7.60
2018-12-14T04:32:18.260Z,7.50
2018-12-14T04:34:45.671Z,6.55
2018-12-14T04:37:13.188Z,6.35
2018-12-14T04:39:40.602Z,6.75
2018-12-14T04:42:08.022Z,7.22
2018-12-14T04:44:35.433Z,6.80
2018-12-14T04:47:02.867Z,7.50
2018-12-14T04:49:30.268Z,8.25
2018-12-14T04:51:57.671Z,7.00
2018-12-14T04:54:25.080Z,6.15
2018-12-14T04:56:53.099Z,8.10
2018-12-14T04:59:20.516Z,8.57
2018-12-14T05:01:47.959Z,8.25
2018-12-14T05:04:15.363Z,7.50
2018-12-14T05:06:42.782Z,8.82
2018-12-14T05:09:10.189Z,9.15
2018-12-14T05:11:39.238Z,7.95
2018-12-14T05:14:05.166Z,7.70
2018-12-14T05:16:32.556Z,7.93
2018-12-14T05:19:00.013Z,7.87
2018-12-14T05:21:27.893Z,7.85
2018-12-14T05:23:55.312Z,9.88
2018-12-14T05:26:23.731Z,7.37
2018-12-14T05:28:51.172Z,9.18
2018-12-14T05:31:18.597Z,7.90
2018-12-14T05:33:46.037Z,9.20
2018-12-14T05:36:13.437Z,8.95
2018-12-14T05:38:40.895Z,7.70
2018-12-14T05:41:08.311Z,9.13
2018-12-14T05:43:35.736Z,9.80
2018-12-14T05:46:03.379Z,6.95
2018-12-14T05:48:30.806Z,7.15
2018-12-14T05:50:58.225Z,8.20
2018-12-14T05:53:25.631Z,8.18
2018-12-14T05:55:53.425Z,8.27
2018-12-14T05:58:20.827Z,7.35
2018-12-14T06:00:48.234Z,8.82
2018-12-14T06:03:15.747Z,8.25
2018-12-14T06:05:43.172Z,7.47
2018-12-14T06:08:10.760Z,7.70
2018-12-14T06:10:38.310Z,6.78
2018-12-14T06:13:09.097Z,8.45
2018-12-14T06:15:33.190Z,8.18
2018-12-14T06:18:00.687Z,8.38
2018-12-14T06:20:29.036Z,6.40
2018-12-14T06:22:56.461Z,9.40
2018-12-14T06:25:24.581Z,7.28
2018-12-14T06:27:52.016Z,8.80
2018-12-14T06:30:19.447Z,8.35
2018-12-14T06:32:46.875Z,8.07
2018-12-14T06:35:14.446Z,6.90
2018-12-14T06:37:41.863Z,7.53
2018-12-14T06:40:09.269Z,8.57
2018-12-14T06:42:37.491Z,7.55
2018-12-14T06:45:04.948Z,9.88
2018-12-14T06:47:32.386Z,6.82
2018-12-14T06:49:59.819Z,9.55
2018-12-14T06:52:27.238Z,8.20
2018-12-14T06:54:54.636Z,8.93
2018-12-14T06:57:22.599Z,10.45
2018-12-14T06:59:49.995Z,8.30
2018-12-14T07:02:17.436Z,8.30
2018-12-14T07:04:44.884Z,8.55
2018-12-14T07:07:12.289Z,7.40
2018-12-14T07:09:39.794Z,8.18
2018-12-14T07:12:07.364Z,8.30
2018-12-14T07:14:34.841Z,7.95
2018-12-14T07:17:02.340Z,8.00
2018-12-14T07:19:29.829Z,8.63
2018-12-14T07:21:57.230Z,6.10
2018-12-14T07:24:24.739Z,8.27
2018-12-14T07:26:52.127Z,9.75
2018-12-14T07:29:19.654Z,8.02
2018-12-14T07:31:47.191Z,8.88
2018-12-14T07:34:14.744Z,10.45
2018-12-14T07:36:42.262Z,5.97
2018-12-14T07:39:09.705Z,6.47
2018-12-14T07:41:37.116Z,8.45
2018-12-14T07:44:04.533Z,8.25
2018-12-14T07:46:31.991Z,8.50
2018-12-14T07:48:59.413Z,9.93
2018-12-14T07:51:26.832Z,8.90
2018-12-14T07:53:54.242Z,8.45
2018-12-14T07:56:21.655Z,9.35
2018-12-14T07:58:49.129Z,9.75
2018-12-14T08:01:16.617Z,9.32
2018-12-14T08:03:44.032Z,7.62
2018-12-14T08:06:12.041Z,10.13
2018-12-14T08:08:39.461Z,8.60
2018-12-14T08:11:06.863Z,9.05
2018-12-14T08:13:34.892Z,8.02
2018-12-14T08:16:01.744Z,10.02
2018-12-14T08:18:29.792Z,9.52
2018-12-14T08:20:57.179Z,8.05
2018-12-14T08:23:24.600Z,8.32
2018-12-14T08:25:52.618Z,8.88
2018-12-14T08:28:20.036Z,9.73
2018-12-14T08:30:47.532Z,8.25
2018-12-14T08:33:14.947Z,11.57
2018-12-14T08:35:42.397Z,9.75
2018-12-14T08:38:09.830Z,7.65
2018-12-14T08:40:37.245Z,8.48
2018-12-14T08:43:04.665Z,10.27
2018-12-14T08:45:32.121Z,7.85
2018-12-14T08:47:59.555Z,8.23
2018-12-14T08:50:26.963Z,8.45
2018-12-14T08:52:55.237Z,8.75
2018-12-14T08:55:22.660Z,9.60
2018-12-14T08:57:50.060Z,9.77
2018-12-14T09:00:17.489Z,9.98
2018-12-14T09:02:44.906Z,8.80
2018-12-14T09:05:12.516Z,9.70
2018-12-14T09:07:39.931Z,7.95
2018-12-14T09:10:07.331Z,8.57
2018-12-14T09:12:34.767Z,8.90
2018-12-14T09:15:02.181Z,7.35
2018-12-14T09:17:29.790Z,9.73
2018-12-14T09:19:57.249Z,8.75
2018-12-14T09:22:25.466Z,10.30
2018-12-14T09:24:52.935Z,11.35
2018-12-14T09:27:20.355Z,9.35
2018-12-14T09:29:47.764Z,10.55
2018-12-14T09:32:15.303Z,11.52
2018-12-14T09:34:42.744Z,8.35
2018-12-14T09:37:10.165Z,8.43
2018-12-14T09:39:38.283Z,8.48
2018-12-14T09:42:05.798Z,9.40
2018-12-14T09:44:34.022Z,10.68
2018-12-14T09:47:01.464Z,11.10
2018-12-14T09:49:29.054Z,8.13
2018-12-14T09:51:56.467Z,9.50
2018-12-14T09:54:23.877Z,8.13
2018-12-14T09:56:51.304Z,10.95
2018-12-14T09:59:18.755Z,8.70
2018-12-14T10:01:46.296Z,11.30
2018-12-14T10:04:14.257Z,11.12
2018-12-14T10:06:41.701Z,10.48
2018-12-14T10:09:09.124Z,10.50
2018-12-14T10:11:36.616Z,10.43
2018-12-14T10:14:04.135Z,11.45
2018-12-14T10:18:58.755Z,11.48
2018-12-14T10:21:26.279Z,11.00
2018-12-14T10:23:53.711Z,10.30
2018-12-14T10:26:21.156Z,9.70
2018-12-14T10:28:48.721Z,12.20
2018-12-14T10:31:16.148Z,11.05
2018-12-14T10:33:43.698Z,11.63
2018-12-14T10:36:11.110Z,9.45
2018-12-14T10:38:38.675Z,11.23
2018-12-14T10:41:06.194Z,10.68
2018-12-14T10:43:33.617Z,9.95
2018-12-14T10:46:01.097Z,10.48
2018-12-14T10:48:29.578Z,10.50
2018-12-14T10:50:56.983Z,9.23
2018-12-14T10:53:24.411Z,11.25
2018-12-14T10:55:51.819Z,10.27
2018-12-14T10:58:20.449Z,9.88
2018-12-14T11:00:52.393Z,8.93
2018-12-14T11:03:19.797Z,10.10
2018-12-14T11:05:47.246Z,11.82
2018-12-14T11:08:14.676Z,10.68
2018-12-14T11:10:42.091Z,10.95
2018-12-14T11:13:09.635Z,10.30
2018-12-14T11:15:37.201Z,10.13
2018-12-14T11:18:04.605Z,9.10
2018-12-14T11:20:32.105Z,9.50
2018-12-14T11:22:59.528Z,9.38
2018-12-14T11:25:26.929Z,11.65
2018-12-14T11:27:54.457Z,9.10
2018-12-14T11:30:23.478Z,8.07
2018-12-14T11:32:50.916Z,10.30
2018-12-14T11:35:18.482Z,12.45
2018-12-14T11:37:45.908Z,10.65
2018-12-14T11:40:13.457Z,9.93
2018-12-14T11:42:40.865Z,11.07
2018-12-14T11:45:08.341Z,13.30
2018-12-14T11:47:35.967Z,9.32
2018-12-14T11:50:03.983Z,10.50
2018-12-14T11:52:31.396Z,10.70
2018-12-14T11:54:58.813Z,10.13
2018-12-14T11:57:26.265Z,8.02
2018-12-14T11:59:53.860Z,10.77
2018-12-14T12:02:21.561Z,9.13
2018-12-14T12:04:48.994Z,11.70
2018-12-14T12:07:16.446Z,10.52
2018-12-14T12:09:43.911Z,10.10
2018-12-14T12:12:11.345Z,10.90
2018-12-14T12:14:38.886Z,10.35
2018-12-14T12:17:06.323Z,9.18
2018-12-14T12:19:33.731Z,9.43
2018-12-14T12:24:28.119Z,13.10
2018-12-14T12:26:55.533Z,9.93
2018-12-14T12:29:23.033Z,12.15
2018-12-14T12:31:50.432Z,10.40
2018-12-14T12:34:17.933Z,10.45
2018-12-14T12:36:45.475Z,10.70
2018-12-14T12:39:13.399Z,9.95
2018-12-14T12:41:40.823Z,10.50
2018-12-14T12:44:08.610Z,11.12
2018-12-14T12:46:36.067Z,10.30
2018-12-14T12:49:03.494Z,10.68
2018-12-14T12:51:30.904Z,13.88
2018-12-14T12:53:58.366Z,11.15
2018-12-14T12:56:25.795Z,11.50
2018-12-14T12:58:54.422Z,11.02
2018-12-14T13:01:20.758Z,10.00
2018-12-14T13:03:48.855Z,11.95
2018-12-14T13:06:16.269Z,8.82
2018-12-14T13:08:43.717Z,11.77
2018-12-14T13:11:11.222Z,13.88
2018-12-14T13:13:38.634Z,11.00
2018-12-14T13:16:06.059Z,12.10
2018-12-14T13:18:34.363Z,9.27
2018-12-14T13:21:01.761Z,10.90
2018-12-14T13:23:29.248Z,11.90
2018-12-14T13:25:56.687Z,10.95
2018-12-14T13:28:24.263Z,9.70
2018-12-14T13:30:51.774Z,9.57
2018-12-14T13:33:19.268Z,10.57
2018-12-14T13:35:46.669Z,8.90
2018-12-14T13:38:14.089Z,8.00
2018-12-14T13:40:41.553Z,7.32
2018-12-14T13:43:09.217Z,10.25
2018-12-14T13:45:36.837Z,8.57
2018-12-14T13:48:04.307Z,7.30
2018-12-14T13:50:31.931Z,8.50
2018-12-14T13:52:59.464Z,7.85
2018-12-14T13:55:26.912Z,9.25
2018-12-14T13:57:54.343Z,11.98
2018-12-14T14:00:21.760Z,8.48
2018-12-14T14:02:49.179Z,9.10
2018-12-14T14:05:16.585Z,10.95
2018-12-14T14:07:44.071Z,10.48
2018-12-14T14:10:11.500Z,8.00
2018-12-14T14:12:38.911Z,7.75
2018-12-14T14:20:00.563Z,11.40
2018-12-14T14:22:28.086Z,8.80
2018-12-14T14:24:55.842Z,10.93
2018-12-14T14:27:23.269Z,10.02
2018-12-14T14:29:50.705Z,9.57
2018-12-14T14:32:18.294Z,8.90
2018-12-14T14:34:45.695Z,10.30
2018-12-14T14:37:13.185Z,10.73
2018-12-14T15:50:44.569Z,10.10
2018-12-14T16:42:16.281Z,9.70
2018-12-14T16:44:43.694Z,10.30
2018-12-14T16:47:11.194Z,8.90
2018-12-14T16:49:39.087Z,9.15
2018-12-14T16:52:06.519Z,10.32
2018-12-14T16:54:33.977Z,10.75
2018-12-14T16:57:01.410Z,11.75
2018-12-14T16:59:28.810Z,11.77
2018-12-14T17:01:56.354Z,9.70
2018-12-14T17:04:23.756Z,8.13
2018-12-14T17:06:51.231Z,11.00
2018-12-14T17:09:18.797Z,10.70
2018-12-14T17:11:46.271Z,10.30
2018-12-14T17:14:13.801Z,12.82
2018-12-14T17:16:41.225Z,11.20
2018-12-14T17:19:08.747Z,9.10
2018-12-14T17:21:36.221Z,9.60
2018-12-14T17:24:03.969Z,10.70
2018-12-14T17:36:20.833Z,11.70
2018-12-14T17:38:48.251Z,10.32
2018-12-14T17:41:15.725Z,11.23
2018-12-14T18:57:30.960Z,11.90
2018-12-14T18:59:58.589Z,12.25
2018-12-14T19:02:27.139Z,10.15
2018-12-14T19:04:54.788Z,10.85
2018-12-14T19:07:22.295Z,10.68
2018-12-14T19:09:51.014Z,11.25
2018-12-14T19:12:18.716Z,10.40
2018-12-14T19:14:46.865Z,11.88
2018-12-14T19:17:14.458Z,12.93
2018-12-14T19:19:41.958Z,11.30
2018-12-14T19:22:09.784Z,10.00
2018-12-14T19:24:37.717Z,12.18
2018-12-14T19:27:05.501Z,10.15
2018-12-14T19:29:33.440Z,12.90
2018-12-14T19:32:00.960Z,11.02
2018-12-14T19:34:31.385Z,11.68
2018-12-14T19:36:55.809Z,12.32
2018-12-14T19:39:23.867Z,12.93
2018-12-14T19:41:51.396Z,12.43
2018-12-14T19:44:19.074Z,13.02
2018-12-14T19:46:47.612Z,14.40
2018-12-14T19:49:19.759Z,15.20
2018-12-14T19:51:48.669Z,10.63
2018-12-14T19:54:16.333Z,12.35
2018-12-14T20:01:38.588Z,10.43
2018-12-14T20:04:06.740Z,14.18
2018-12-14T20:06:34.210Z,11.23
2018-12-14T20:09:01.636Z,12.60
2018-12-14T20:11:29.064Z,12.15
2018-12-14T20:13:56.491Z,13.15
2018-12-14T20:16:23.888Z,12.77
2018-12-14T20:18:51.321Z,11.65
2018-12-14T20:21:18.737Z,13.68
2018-12-14T20:23:46.139Z,13.27
2018-12-14T20:26:13.603Z,11.95
2018-12-14T20:28:41.032Z,11.88
2018-12-14T20:31:08.461Z,13.55
2018-12-14T20:33:35.869Z,11.90
2018-12-14T20:36:03.291Z,13.75
2018-12-14T20:38:30.721Z,14.07
2018-12-14T20:40:58.203Z,14.43
2018-12-14T20:43:25.615Z,10.90
2018-12-14T20:45:53.093Z,14.60
2018-12-14T20:48:20.495Z,10.38
2018-12-14T20:50:47.903Z,15.50
2018-12-14T20:53:15.576Z,11.65
2018-12-14T20:55:43.769Z,12.73
2018-12-14T20:58:11.232Z,10.30
2018-12-14T21:00:38.702Z,14.35
2018-12-14T21:03:06.267Z,13.07
2018-12-14T21:05:33.735Z,13.77
2018-12-14T21:08:01.537Z,11.20
2018-12-14T21:10:29.166Z,11.73
2018-12-14T21:12:56.649Z,13.15
2018-12-14T21:15:24.188Z,12.40
2018-12-14T21:17:52.416Z,13.75
2018-12-14T21:20:19.849Z,12.13
2018-12-14T21:22:47.430Z,12.63
2018-12-14T21:25:14.862Z,11.82
2018-12-14T21:27:42.986Z,11.43
2018-12-14T21:30:10.637Z,13.43
2018-12-14T21:32:38.071Z,12.43
2018-12-14T21:35:06.363Z,9.95
2018-12-14T21:37:33.891Z,12.98
2018-12-14T21:40:01.375Z,10.45
2018-12-14T21:42:29.194Z,14.60
2018-12-14T21:44:56.618Z,12.07
2018-12-14T21:47:25.512Z,14.25
2018-12-14T21:49:53.256Z,11.12
2018-12-14T21:52:20.692Z,12.48
2018-12-14T21:54:48.255Z,12.48
2018-12-14T21:57:16.859Z,12.95
2018-12-14T21:59:44.479Z,11.75
2018-12-14T22:02:11.928Z,12.60
2018-12-14T22:04:40.765Z,11.18
2018-12-14T22:07:08.424Z,13.95
2018-12-14T22:09:36.045Z,10.30
2018-12-14T22:12:03.772Z,12.40
2018-12-14T22:14:31.316Z,12.68
2018-12-14T22:16:58.963Z,12.43
2018-12-14T22:19:26.566Z,12.90
2018-12-14T22:21:54.323Z,12.02
2018-12-14T22:24:21.808Z,12.40
2018-12-14T22:26:49.344Z,14.93
2018-12-14T22:29:17.287Z,13.23
2018-12-14T22:31:44.691Z,13.98
2018-12-14T22:34:12.199Z,13.77
2018-12-14T22:36:39.610Z,13.27
2018-12-14T22:39:07.293Z,12.13
2018-12-14T22:41:35.267Z,14.30
2018-12-14T22:44:02.690Z,11.35
2018-12-14T22:46:30.371Z,11.63
2018-12-14T22:48:57.831Z,9.95
2018-12-14T22:51:26.400Z,9.32
2018-12-14T22:53:53.948Z,13.95
2018-12-14T22:56:21.472Z,12.60
2018-12-14T22:58:49.116Z,12.75
2018-12-14T23:01:16.548Z,10.88
2018-12-14T23:03:44.126Z,11.12
2018-12-14T23:06:11.593Z,9.57
2018-12-14T23:08:38.994Z,11.85
2018-12-14T23:11:06.557Z,13.85
2018-12-14T23:13:34.029Z,11.55
2018-12-14T23:16:01.538Z,10.80
2018-12-14T23:18:30.003Z,10.60
2018-12-14T23:20:57.768Z,13.55
2018-12-14T23:23:25.650Z,10.70
2018-12-14T23:25:53.300Z,12.15
2018-12-14T23:28:21.555Z,13.48
2018-12-14T23:30:48.970Z,12.82
2018-12-14T23:33:16.499Z,11.73
2018-12-14T23:35:44.058Z,13.77
2018-12-14T23:38:11.757Z,14.63
2018-12-14T23:40:39.299Z,13.85
2018-12-14T23:43:07.932Z,12.57
2018-12-14T23:45:36.300Z,11.45
2018-12-14T23:48:04.068Z,12.52
2018-12-14T23:50:32.527Z,14.05
2018-12-14T23:53:01.025Z,12.95
2018-12-14T23:55:28.640Z,12.77
2018-12-14T23:57:56.365Z,11.75
